Dodson, Oregon
Current Conditions -  °F | °C
As of 3:59 PM on Sunday 25 Jan 2015 (Local Time) from K4S2 Reporting Station
Clear Clear  
Wind Chill: 55°   Ceiling: Unl
Heat Index: 55°   Visibility: 10mi
Dew Point: 46°   Wind: 3mph
Humidity: 72%   Direction: 350°N
Pressure: 30.11"   Gusts: NA
Location:  45.6281°N, 121.806°W
Report Text: K4S2 252359Z AUTO 35003KT 10SM CLR 13/08 A3011 RMK AO2 SLPNO
Loading
Personal Weather Stations






























Interactive Weather Map New forecast layout! Learn more

10-Day Weather Forecast

Advertisements
Track Severe Weather on mobile